Time;durP1;ratioP1;P1;durP2;ratioP2;P2;SDS_P1;SDS_P2;PMS_P1;PMS_P2;Temp;Humidity;BMP_temperature;BMP_pressure;BME280_temperature;BME280_humidity;BME280_pressure;Samples;Min_cycle;Max_cycle;Signal;HPM_P1;HPM_P2
2022/06/12 00:04:52;;;;;;;13.28;5.12;;;;;;;20.22;71.00;101178.69;5249680;55;1138988;-72
2022/06/12 00:09:57;;;;;;;11.75;5.95;;;;;;;20.33;70.54;101175.67;5225687;56;1141104;-74
2022/06/12 00:15:05;;;;;;;10.30;5.03;;;;;;;20.49;70.34;101178.91;5218022;56;1141049;-73
2022/06/12 00:20:12;;;;;;;8.40;4.85;;;;;;;20.54;69.89;101169.02;5218255;56;1141007;-73
2022/06/12 00:25:20;;;;;;;9.15;4.95;;;;;;;20.70;69.90;101166.33;5218116;56;1139047;-74
2022/06/12 00:30:27;;;;;;;12.18;5.75;;;;;;;20.75;69.48;101170.70;5218058;55;1138949;-73
2022/06/12 00:35:38;;;;;;;9.43;5.92;;;;;;;20.72;69.36;101168.34;5218110;55;1140464;-73
2022/06/12 00:40:45;;;;;;;10.65;6.28;;;;;;;20.54;68.93;101176.58;5218219;55;1139114;-74
2022/06/12 00:45:54;;;;;;;7.42;5.22;;;;;;;20.28;69.49;101178.55;5283848;55;1141078;-72
2022/06/12 00:51:08;;;;;;;6.80;4.85;;;;;;;20.22;70.08;101176.00;5194003;56;1138944;-73
2022/06/12 00:56:22;;;;;;;9.75;4.05;;;;;;;20.24;70.03;101179.37;5219300;56;1138983;-72
2022/06/12 01:01:45;;;;;;;11.40;4.95;;;;;;;20.20;69.86;101172.64;5219734;56;1138916;-72
2022/06/12 01:06:55;;;;;;;12.33;5.12;;;;;;;20.15;70.00;101170.97;5235058;55;1141326;-73
2022/06/12 01:12:05;;;;;;;9.98;4.75;;;;;;;20.19;70.48;101172.30;5310209;55;1141017;-74
2022/06/12 01:17:12;;;;;;;9.88;4.85;;;;;;;20.25;70.41;101170.81;5310311;55;1136812;-73
2022/06/12 01:22:44;;;;;;;7.53;4.20;;;;;;;20.20;70.15;101166.42;5311023;55;1136924;-72
2022/06/12 01:28:03;;;;;;;6.12;4.30;;;;;;;20.07;70.06;101160.70;5238535;55;1136925;-74
2022/06/12 01:33:41;;;;;;;8.78;4.42;;;;;;;19.92;70.38;101165.37;5221987;56;1136849;-73
2022/06/12 01:39:06;;;;;;;8.05;4.75;;;;;;;19.95;71.87;101160.18;5220990;56;1134815;-73
2022/06/12 01:44:36;;;;;;;6.47;4.87;;;;;;;19.95;71.87;101160.18;5255325;55;1138948;-73
2022/06/12 01:49:57;;;;;;;5.70;4.20;;;;;;;20.16;71.73;101159.23;5243311;55;1139057;-73
2022/06/12 01:55:22;;;;;;;5.25;4.50;;;;;;;20.20;70.86;101163.23;5219597;56;1138980;-74
2022/06/12 02:00:29;;;;;;;7.78;4.53;;;;;;;20.24;71.06;101153.85;5218452;56;1138972;-73
2022/06/12 02:05:54;;;;;;;9.08;5.03;;;;;;;20.21;70.81;101163.58;5219121;56;1139248;-73
2022/06/12 02:16:50;;;;;;;5.87;4.92;;;;;;;20.11;70.95;101151.31;5240712;55;1138928;-73
2022/06/12 02:22:15;;;;;;;6.97;4.97;;;;;;;19.96;71.17;101153.30;5230836;55;1138899;-74
2022/06/12 02:27:26;;;;;;;10.53;5.83;;;;;;;19.90;71.56;101154.45;5217099;56;1136870;-73
2022/06/12 02:32:41;;;;;;;10.13;6.30;;;;;;;19.87;71.89;101157.45;5217013;56;1139210;-74
2022/06/12 02:37:52;;;;;;;9.20;5.45;;;;;;;19.86;72.20;101161.17;5216487;56;1138889;-72
2022/06/12 02:43:01;;;;;;;8.43;4.87;;;;;;;19.84;72.46;101153.78;5231091;55;1136774;-73
2022/06/12 02:48:09;;;;;;;9.03;5.15;;;;;;;19.84;72.45;101159.16;5263397;55;1136763;-72
2022/06/12 02:53:33;;;;;;;10.40;5.85;;;;;;;19.88;72.93;101172.06;5185301;56;1137042;-73
2022/06/12 02:58:50;;;;;;;10.18;6.10;;;;;;;19.85;72.88;101169.73;5216789;56;1139059;-73
2022/06/12 03:04:00;;;;;;;11.63;5.87;;;;;;;19.82;73.17;101169.20;5217235;56;1137106;-72
2022/06/12 03:09:08;;;;;;;8.73;6.35;;;;;;;19.75;73.30;101173.53;5240757;56;21175;-73
2022/06/12 03:14:18;;;;;;;8.17;6.57;;;;;;;19.70;73.58;101173.20;5240856;55;1134770;-73
2022/06/12 03:19:46;;;;;;;10.47;6.03;;;;;;;19.64;74.06;101174.17;5223398;56;1146876;-73
2022/06/12 03:24:57;;;;;;;11.08;6.12;;;;;;;19.63;74.34;101175.17;5162195;55;1141207;-72
2022/06/12 03:30:24;;;;;;;12.07;6.35;;;;;;;19.56;74.00;101174.12;5225898;55;1141252;-72
2022/06/12 03:35:48;;;;;;;14.65;6.78;;;;;;;19.35;74.21;101172.34;5159430;56;1141090;-72
2022/06/12 03:40:59;;;;;;;12.05;6.30;;;;;;;19.20;75.06;101166.73;5165445;55;1141238;-73
2022/06/12 03:46:29;;;;;;;8.60;6.77;;;;;;;19.03;75.59;101160.92;5167811;56;1141024;-74
2022/06/12 03:51:42;;;;;;;9.75;6.60;;;;;;;18.95;76.05;101173.76;5198488;56;1138883;-72
2022/06/12 04:02:25;;;;;;;10.68;6.42;;;;;;;18.75;77.58;101179.48;5183567;56;1140966;-73
2022/06/12 04:07:34;;;;;;;9.00;6.75;;;;;;;18.69;78.46;101181.44;5155238;56;1141262;-74
2022/06/12 04:12:40;;;;;;;8.63;6.25;;;;;;;18.64;78.96;101185.10;5183561;56;1136888;-73
2022/06/12 04:17:46;;;;;;;10.30;6.45;;;;;;;18.68;79.53;101187.30;5189567;56;1137009;-73
2022/06/12 04:23:02;;;;;;;7.42;6.30;;;;;;;18.65;79.92;101194.80;5204449;56;1138977;-73
2022/06/12 04:28:24;;;;;;;7.80;5.45;;;;;;;18.73;80.17;101187.68;5202879;56;1137125;-73
2022/06/12 04:33:44;;;;;;;9.88;6.45;;;;;;;18.83;80.18;101191.10;5201691;56;1136875;-73
2022/06/12 04:38:53;;;;;;;10.78;5.60;;;;;;;18.91;80.72;101187.66;5159328;56;1137042;-73
2022/06/12 04:43:58;;;;;;;7.90;4.50;;;;;;;19.01;80.67;101183.02;5194300;56;1139072;-73
2022/06/12 04:49:08;;;;;;;7.37;4.65;;;;;;;19.18;80.98;101184.81;5218075;56;1137160;-73
2022/06/12 04:54:16;;;;;;;7.92;4.25;;;;;;;19.34;81.42;101181.38;5227420;55;1136877;-74
2022/06/12 04:59:22;;;;;;;8.30;4.47;;;;;;;19.49;81.37;101186.98;5224448;56;1135254;-74
2022/06/12 05:04:30;;;;;;;10.58;3.72;;;;;;;19.65;81.74;101187.09;5227510;56;1134717;-73
2022/06/12 05:09:45;;;;;;;8.23;4.05;;;;;;;19.78;80.95;101190.66;5167580;56;1141038;-73
2022/06/12 05:14:46;;;;;;;7.70;3.80;;;;;;;19.90;80.82;101188.85;5141109;56;1139023;-73
2022/06/12 05:19:52;;;;;;;8.87;3.50;;;;;;;20.10;81.02;101193.95;5141525;56;1138949;-73
2022/06/12 05:24:58;;;;;;;3.87;2.83;;;;;;;20.27;80.40;101183.08;5141397;56;1139094;-73
2022/06/12 05:30:06;;;;;;;4.28;2.75;;;;;;;20.50;79.92;101183.78;5141252;56;1139050;-74
2022/06/12 05:35:13;;;;;;;4.87;2.87;;;;;;;20.71;79.15;101186.83;5150158;56;1139099;-73
2022/06/12 05:40:25;;;;;;;4.25;2.40;;;;;;;20.90;78.17;101185.64;5205941;56;1139119;-74
2022/06/12 05:45:33;;;;;;;8.05;4.00;;;;;;;21.10;77.31;101186.09;5200404;56;1139188;-74
2022/06/12 05:50:48;;;;;;;4.22;2.60;;;;;;;21.32;76.19;101178.69;5229175;56;1138994;-73
2022/06/12 05:55:56;;;;;;;12.63;2.92;;;;;;;21.52;74.48;101184.02;5208786;56;1138975;-73
2022/06/12 06:01:01;;;;;;;5.90;2.58;;;;;;;21.66;70.13;101181.09;5215281;55;1141373;-73
2022/06/12 06:06:10;;;;;;;9.88;2.35;;;;;;;21.79;71.19;101179.18;5235819;55;1138933;-73
2022/06/12 06:11:17;;;;;;;6.53;2.55;;;;;;;21.91;68.67;101191.23;5246366;55;1138923;-74
2022/06/12 06:16:23;;;;;;;6.15;2.70;;;;;;;22.05;68.57;101202.13;5235680;55;1138985;-73
2022/06/12 06:21:29;;;;;;;21.17;2.62;;;;;;;22.24;67.87;101202.19;5253697;55;1138956;-73
2022/06/12 06:26:35;;;;;;;5.58;2.45;;;;;;;22.42;66.18;101193.81;5233094;55;1141170;-73
2022/06/12 06:31:41;;;;;;;7.10;2.77;;;;;;;22.55;65.32;101198.59;5231814;55;1138896;-73
2022/06/12 06:36:47;;;;;;;7.62;2.77;;;;;;;22.69;64.81;101195.11;5268937;55;1139037;-74
2022/06/12 06:41:53;;;;;;;6.12;2.27;;;;;;;22.76;64.55;101198.77;5310717;55;1138929;-74
2022/06/12 06:47:00;;;;;;;5.87;2.67;;;;;;;22.87;62.54;101195.66;5281237;55;1138983;-72
2022/06/12 06:52:06;;;;;;;9.85;2.83;;;;;;;22.99;60.53;101196.89;5268520;55;1138842;-74
2022/06/12 06:57:13;;;;;;;8.00;3.08;;;;;;;23.06;58.83;101199.20;5243965;55;1138969;-74
2022/06/12 07:02:19;;;;;;;11.88;2.92;;;;;;;23.21;59.46;101184.38;5238308;55;1139213;-74
2022/06/12 07:07:25;;;;;;;15.65;2.60;;;;;;;23.40;59.97;101186.49;5273624;55;1141084;-75
2022/06/12 07:12:33;;;;;;;6.42;2.45;;;;;;;23.64;59.17;101180.01;5236682;55;1140986;-73
2022/06/12 07:17:39;;;;;;;5.72;2.47;;;;;;;23.73;58.53;101182.08;5244644;55;1138987;-75
2022/06/12 07:22:45;;;;;;;13.48;2.70;;;;;;;23.83;56.40;101178.05;5239580;55;1139030;-73
2022/06/12 07:27:51;;;;;;;8.55;2.37;;;;;;;23.90;55.84;101173.25;5251630;55;1141376;-73
2022/06/12 07:32:59;;;;;;;7.42;2.47;;;;;;;24.05;54.40;101172.69;5251731;55;1139308;-75
2022/06/12 07:38:07;;;;;;;11.15;2.95;;;;;;;24.15;53.71;101172.70;5251188;55;1139035;-74
2022/06/12 07:43:13;;;;;;;10.78;2.80;;;;;;;24.43;53.28;101173.34;5264148;55;1141053;-71
2022/06/12 07:48:25;;;;;;;10.80;2.90;;;;;;;24.67;54.57;101163.97;5262519;55;1141036;-75
2022/06/12 07:53:32;;;;;;;7.60;2.20;;;;;;;24.82;53.22;101170.13;5265691;55;1139002;-75
2022/06/12 07:58:41;;;;;;;8.20;1.98;;;;;;;24.90;52.27;101165.94;5289466;55;1136955;-74
2022/06/12 08:03:48;;;;;;;8.50;2.05;;;;;;;24.95;52.59;101162.66;5251099;55;1137106;-75
2022/06/12 08:08:56;;;;;;;9.83;2.62;;;;;;;25.16;52.68;101162.61;5258139;55;1136859;-74
2022/06/12 08:14:02;;;;;;;9.08;2.33;;;;;;;25.34;52.14;101158.87;5219361;56;1136876;-74
2022/06/12 08:24:37;;;;;;;4.65;1.75;;;;;;;25.58;47.86;101152.93;5234839;55;1136869;-73
2022/06/12 08:29:48;;;;;;;5.58;2.35;;;;;;;25.63;49.75;101151.02;5237426;55;1136841;-74
2022/06/12 08:34:55;;;;;;;8.90;2.35;;;;;;;25.62;50.29;101145.80;5096186;57;1137269;-74
2022/06/12 08:40:01;;;;;;;4.85;2.02;;;;;;;25.76;49.45;101147.00;5008085;56;1137174;-73
2022/06/12 08:45:14;;;;;;;4.40;1.77;;;;;;;25.97;49.07;101143.31;5037548;57;1135074;-73
2022/06/12 08:50:39;;;;;;;9.10;2.37;;;;;;;26.17;49.09;101140.11;5033285;58;1139253;-74
2022/06/12 08:55:58;;;;;;;5.22;2.15;;;;;;;26.30;46.76;101135.77;4997050;58;1139029;-73
2022/06/12 09:01:07;;;;;;;5.53;1.62;;;;;;;26.19;46.54;101125.83;5075026;58;1139044;-73
2022/06/12 09:06:46;;;;;;;3.52;1.57;;;;;;;26.19;48.12;101126.34;4980443;58;1139152;-75
2022/06/12 09:11:59;;;;;;;3.98;1.45;;;;;;;25.88;41.19;101125.55;5306798;55;1139027;-72
2022/06/12 09:17:24;;;;;;;1.92;1.32;;;;;;;25.76;43.96;101130.73;5302525;55;1138993;-73
2022/06/12 09:22:40;;;;;;;5.70;2.33;;;;;;;25.75;45.74;101119.58;5224759;55;1139268;-73
2022/06/12 09:28:05;;;;;;;3.58;1.70;;;;;;;25.87;44.90;101111.69;5218073;56;1139075;-74
2022/06/12 09:33:28;;;;;;;5.33;1.50;;;;;;;25.97;43.73;101104.02;5216195;56;1139085;-73
2022/06/12 09:38:44;;;;;;;3.72;1.80;;;;;;;26.20;43.93;101094.13;5217789;56;1139189;-75
2022/06/12 09:44:20;;;;;;;5.05;1.30;;;;;;;26.43;45.41;101088.34;5246619;55;1137004;-74
2022/06/12 09:49:48;;;;;;;3.60;1.22;;;;;;;26.48;39.58;101096.66;5207345;55;1136253;-74
2022/06/12 09:55:04;;;;;;;5.55;1.37;;;;;;;26.41;44.10;101083.12;5248034;55;1136964;-73
2022/06/12 10:00:21;;;;;;;2.85;1.40;;;;;;;26.79;44.36;101072.94;5218854;56;1136854;-74
2022/06/12 10:06:05;;;;;;;3.92;1.55;;;;;;;26.84;41.12;101066.36;5218483;56;1134797;-74
2022/06/12 10:11:25;;;;;;;3.05;1.65;;;;;;;26.52;42.02;101074.34;5277256;55;1138938;-75
2022/06/12 10:16:38;;;;;;;7.28;1.80;;;;;;;26.30;42.71;101074.75;5233906;55;1138888;-73
2022/06/12 10:21:48;;;;;;;2.22;1.22;;;;;;;26.30;43.04;101067.97;5249597;55;1138954;-73
2022/06/12 10:27:12;;;;;;;5.00;1.50;;;;;;;26.44;41.87;101068.28;5260432;55;1138988;-75
2022/06/12 10:32:22;;;;;;;3.40;1.20;;;;;;;26.49;41.60;101060.36;5227414;55;1138967;-74
2022/06/12 10:37:30;;;;;;;2.12;1.32;;;;;;;26.39;42.68;101051.30;5232467;55;1139065;-74
2022/06/12 10:42:55;;;;;;;1.62;1.30;;;;;;;26.26;42.61;101052.11;5234357;55;1138948;-75
2022/06/12 10:48:37;;;;;;;2.42;1.27;;;;;;;26.15;44.05;101053.23;5250789;55;1138969;-72
2022/06/12 10:53:42;;;;;;;3.08;1.40;;;;;;;26.06;43.64;101041.77;5228839;55;1138914;-73
2022/06/12 10:59:15;;;;;;;3.35;1.65;;;;;;;25.88;43.85;101040.18;5247008;55;1138943;-74
2022/06/12 11:05:14;;;;;;;12.50;2.47;;;;;;;25.88;45.12;101037.47;5241960;55;1136828;-74
2022/06/12 11:10:48;;;;;;;3.75;1.67;;;;;;;25.87;45.33;101032.57;5221464;55;1139266;-75
2022/06/12 11:16:10;;;;;;;6.03;1.82;;;;;;;25.85;46.06;101025.69;5039856;58;1138997;-77
2022/06/12 11:21:40;;;;;;;2.15;1.95;;;;;;;25.74;46.29;101030.36;5039459;58;1139107;-77
2022/06/12 11:27:15;;;;;;;5.92;2.30;;;;;;;25.59;45.67;101030.51;5039575;58;1138992;-73
2022/06/12 11:32:55;;;;;;;6.00;2.12;;;;;;;25.50;46.81;101019.56;5039376;58;1139147;-73
2022/06/12 11:38:11;;;;;;;1.82;1.50;;;;;;;25.43;47.17;101020.05;5040033;58;1139099;-73
2022/06/12 11:43:27;;;;;;;4.28;1.65;;;;;;;25.52;49.00;101013.39;5034956;58;1138942;-73
2022/06/12 11:49:03;;;;;;;8.55;1.77;;;;;;;25.56;48.27;101015.50;5020343;57;1139130;-75
2022/06/12 11:54:37;;;;;;;4.87;1.92;;;;;;;25.49;49.08;101011.95;5110141;57;1139101;-74
2022/06/12 11:59:59;;;;;;;7.12;1.85;;;;;;;25.36;48.81;101009.73;5191510;55;1136963;-73
2022/06/12 12:05:29;;;;;;;6.40;1.90;;;;;;;25.17;49.21;101009.45;5153594;56;1137159;-75
2022/06/12 12:11:08;;;;;;;5.75;1.80;;;;;;;25.00;48.98;101014.05;5242559;56;1136930;-75
2022/06/12 12:16:54;;;;;;;4.37;1.52;;;;;;;24.83;49.35;101014.36;5244931;56;1138951;-77
2022/06/12 12:22:11;;;;;;;9.00;2.65;;;;;;;24.66;50.12;101013.52;5238911;56;1139040;-76
2022/06/12 12:27:27;;;;;;;5.35;2.30;;;;;;;24.56;51.46;101017.11;5215116;56;1138865;-77
2022/06/12 12:32:35;;;;;;;2.00;1.40;;;;;;;24.35;52.77;101027.45;5173057;56;1139100;-74
2022/06/12 12:43:08;;;;;;;6.08;2.33;;;;;;;23.76;55.73;101016.94;5182696;56;1138979;-74
2022/06/12 12:48:16;;;;;;;5.62;2.37;;;;;;;23.75;56.56;101020.66;5203942;56;1139197;-75
2022/06/12 12:53:32;;;;;;;7.30;1.90;;;;;;;23.60;56.57;101018.53;5215746;56;1139123;-76
2022/06/12 12:58:57;;;;;;;5.70;1.80;;;;;;;23.71;57.78;100994.55;5147486;56;1139120;-77
2022/06/12 13:04:25;;;;;;;6.40;1.90;;;;;;;23.92;58.80;100991.53;5081885;57;1139007;-73
2022/06/12 13:09:56;;;;;;;6.62;2.24;;;;;;;24.13;58.70;100984.75;5098367;56;1136926;-72
2022/06/12 13:15:24;;;;;;;5.58;2.25;;;;;;;24.29;58.15;100944.45;5162210;56;1136873;-73
2022/06/12 13:20:49;;;;;;;6.22;3.10;;;;;;;24.43;57.72;100967.84;5132993;56;1137203;-73
2022/06/12 13:25:56;;;;;;;4.45;2.37;;;;;;;24.64;58.38;100967.73;5133124;56;1136929;-71
2022/06/12 13:31:05;;;;;;;8.20;2.25;;;;;;;24.71;58.16;100959.16;5087861;56;1136864;-74
2022/06/12 13:36:16;;;;;;;6.78;2.90;;;;;;;24.92;57.92;100961.41;5079455;56;1135200;-73
2022/06/12 13:41:43;;;;;;;6.30;2.48;;;;;;;25.06;57.65;100945.56;5050225;58;1138900;-72
2022/06/12 13:46:49;;;;;;;3.55;1.82;;;;;;;25.36;57.53;100932.00;5132979;56;1139104;-71
2022/06/12 13:52:05;;;;;;;4.60;2.12;;;;;;;25.55;56.21;100922.25;5167421;56;1138958;-74
2022/06/12 13:57:36;;;;;;;3.40;2.00;;;;;;;25.79;56.56;100904.59;5040053;57;1138950;-73
2022/06/12 14:02:43;;;;;;;7.65;3.17;;;;;;;26.09;55.58;100897.67;5132926;57;1138972;-74
2022/06/12 14:07:52;;;;;;;4.35;2.33;;;;;;;26.40;53.67;100890.23;5161972;56;1139171;-70
2022/06/12 14:13:03;;;;;;;6.28;1.98;;;;;;;26.57;52.26;100887.87;5218212;56;1139160;-72
2022/06/12 14:18:31;;;;;;;7.25;2.50;;;;;;;26.73;52.35;100892.81;5218333;56;1139015;-75
2022/06/12 14:23:37;;;;;;;6.15;2.20;;;;;;;26.71;50.06;100886.77;5217136;56;1138975;-73
2022/06/12 14:28:43;;;;;;;4.30;1.90;;;;;;;26.78;50.95;100876.70;5218363;56;1139064;-73
2022/06/12 14:34:04;;;;;;;3.72;2.00;;;;;;;26.85;51.16;100861.75;5155541;56;1138644;-74
2022/06/12 14:39:29;;;;;;;6.67;2.85;;;;;;;26.98;51.11;100864.41;5100936;57;1139164;-74
2022/06/12 14:44:35;;;;;;;18.05;3.42;;;;;;;27.13;50.72;100861.40;5128684;57;1138924;-72
2022/06/12 14:49:42;;;;;;;10.85;2.15;;;;;;;27.19;50.02;100859.98;5080314;57;1141168;-73
2022/06/12 14:54:47;;;;;;;4.45;2.47;;;;;;;27.08;49.03;100853.06;5059382;58;1141059;-71
2022/06/12 14:59:57;;;;;;;3.35;1.75;;;;;;;27.13;48.83;100851.37;5099026;57;1136898;-73
2022/06/12 15:05:04;;;;;;;6.22;2.27;;;;;;;27.07;49.02;100840.54;5121885;56;1136898;-72
2022/06/12 15:10:11;;;;;;;10.30;2.83;;;;;;;27.04;49.96;100830.95;5165610;56;1137084;-70
2022/06/12 15:15:23;;;;;;;5.12;2.27;;;;;;;27.00;49.30;100827.55;5172169;56;1138973;-71
2022/06/12 15:20:30;;;;;;;4.92;1.77;;;;;;;27.03;49.47;100815.73;5212334;56;1137111;-73
2022/06/12 15:31:03;;;;;;;12.88;3.30;;;;;;;26.77;49.08;100807.70;5181909;56;1139080;-73
2022/06/12 15:36:18;;;;;;;8.55;2.33;;;;;;;26.66;49.64;100815.19;5215881;56;1138845;-73
2022/06/12 15:41:24;;;;;;;7.92;3.62;;;;;;;26.54;49.98;100805.03;5215980;56;1136944;-71
2022/06/12 15:46:29;;;;;;;6.55;2.70;;;;;;;26.47;50.19;100793.89;5278921;55;1136931;-73
2022/06/12 15:51:35;;;;;;;8.28;2.58;;;;;;;26.37;50.74;100797.59;5131738;56;1134834;-74
2022/06/12 15:56:46;;;;;;;5.65;2.00;;;;;;;26.30;50.77;100804.39;5130444;57;1139008;-71
2022/06/12 16:01:53;;;;;;;13.55;7.62;;;;;;;26.21;50.72;100797.01;5141838;56;1138867;-71
2022/06/12 16:06:59;;;;;;;9.70;3.07;;;;;;;26.08;53.21;100797.06;5228708;56;1141091;-74
2022/06/12 16:12:05;;;;;;;5.77;3.03;;;;;;;25.85;54.68;100802.94;5228593;56;1139453;-72
2022/06/12 16:17:13;;;;;;;8.05;3.83;;;;;;;25.71;56.70;100809.44;5235746;55;1138987;-77
2022/06/12 16:22:21;;;;;;;7.03;4.65;;;;;;;25.53;57.43;100810.56;5252430;55;1139057;-75
2022/06/12 16:27:27;;;;;;;15.18;5.95;;;;;;;25.38;58.23;100822.13;5273234;55;1139258;-73
2022/06/12 16:32:32;;;;;;;15.85;6.37;;;;;;;25.21;59.74;100808.17;5228796;55;1140943;-75
2022/06/12 16:37:41;;;;;;;9.03;5.33;;;;;;;25.09;61.89;100793.07;5246183;55;1141071;-75
2022/06/12 16:42:47;;;;;;;14.58;5.70;;;;;;;25.09;63.30;100803.90;5231338;55;1138981;-75
2022/06/12 16:47:54;;;;;;;8.90;3.50;;;;;;;25.03;63.43;100802.56;5285574;55;1141291;-76
2022/06/12 16:53:01;;;;;;;8.65;3.05;;;;;;;24.92;63.97;100796.34;5315586;55;1138948;-77
2022/06/12 16:58:06;;;;;;;4.45;3.10;;;;;;;24.90;64.15;100788.47;5315220;55;1139562;-77
2022/06/12 17:03:12;;;;;;;2.72;2.40;;;;;;;24.81;63.55;100782.39;5315441;55;1138946;-75
2022/06/12 17:08:18;;;;;;;5.45;4.05;;;;;;;24.54;63.76;100780.67;5276466;55;1138979;-76
2022/06/12 17:13:23;;;;;;;9.80;7.55;;;;;;;24.27;65.01;100777.05;5226395;56;1139084;-76
2022/06/12 17:23:52;;;;;;;127.55;89.32;;;;;;;24.39;66.94;100774.59;5287596;55;1139347;-73
2022/06/12 17:28:58;;;;;;;12.98;6.08;;;;;;;24.50;66.68;100773.48;5228371;56;1145409;-77
2022/06/12 17:34:05;;;;;;;8.60;3.85;;;;;;;24.55;65.95;100772.87;5228388;56;1141066;-74
2022/06/12 17:39:10;;;;;;;16.10;11.20;;;;;;;24.59;65.29;100766.55;5228514;56;1138751;-76
2022/06/12 17:44:19;;;;;;;5.72;3.60;;;;;;;24.60;65.01;100773.08;5228336;56;1143065;-73
2022/06/12 17:49:24;;;;;;;18.30;8.55;;;;;;;24.58;64.67;100772.47;5228412;55;1138975;-79
2022/06/12 17:54:31;;;;;;;17.10;9.30;;;;;;;24.50;64.66;100775.34;5228370;56;1141118;-76
2022/06/12 17:59:36;;;;;;;11.33;4.25;;;;;;;24.43;64.89;100775.86;5228390;56;1141308;-74
2022/06/12 18:04:45;;;;;;;9.98;3.80;;;;;;;24.37;65.06;100779.36;5215557;55;1141102;-78
2022/06/12 18:09:49;;;;;;;10.48;3.35;;;;;;;24.30;65.38;100786.60;5228899;56;1139235;-75
2022/06/12 18:20:19;;;;;;;7.00;3.17;;;;;;;24.04;65.32;100785.95;5228857;56;1141003;-74
2022/06/12 18:25:24;;;;;;;7.10;4.00;;;;;;;23.95;65.35;100776.34;5229012;55;1139462;-73
2022/06/12 18:30:33;;;;;;;8.50;3.08;;;;;;;23.82;65.81;100778.47;5229092;55;1138914;-76
2022/06/12 18:35:48;;;;;;;9.50;3.40;;;;;;;23.71;66.37;100776.30;5229150;55;1136889;-75
2022/06/12 18:40:57;;;;;;;14.80;3.25;;;;;;;23.60;66.76;100776.86;5228796;56;1136873;-74
2022/06/12 18:46:03;;;;;;;11.25;4.20;;;;;;;23.45;67.29;100791.27;5291717;55;1139040;-75
2022/06/12 18:51:10;;;;;;;13.20;3.67;;;;;;;23.46;68.00;100788.88;5162402;56;1139012;-76
2022/06/12 18:56:29;;;;;;;9.93;4.05;;;;;;;23.45;67.51;100786.37;5166389;56;1138907;-77
2022/06/12 19:01:36;;;;;;;8.08;3.30;;;;;;;23.39;67.52;100791.20;5197869;55;1137305;-77
2022/06/12 19:06:47;;;;;;;7.05;2.87;;;;;;;23.30;67.38;100789.17;4982191;58;1137315;-74
2022/06/12 19:11:52;;;;;;;11.08;4.00;;;;;;;23.15;67.57;100791.95;5175169;56;1137153;-77
2022/06/12 19:16:59;;;;;;;13.65;4.72;;;;;;;22.99;67.83;100799.47;5186841;56;1138967;-75
2022/06/12 19:22:05;;;;;;;11.53;5.95;;;;;;;22.86;68.26;100798.00;5201909;56;1138925;-74
2022/06/12 19:27:11;;;;;;;9.33;4.62;;;;;;;22.86;68.83;100799.34;5163689;56;1138968;-75
2022/06/12 19:32:24;;;;;;;12.15;4.95;;;;;;;22.88;69.02;100800.83;5014609;58;1135149;-75
2022/06/12 19:37:36;;;;;;;8.55;4.58;;;;;;;22.82;68.78;100798.89;5012131;57;1141054;-76
2022/06/12 19:42:39;;;;;;;8.47;5.77;;;;;;;22.62;68.79;100804.03;5209732;55;1138926;-76
2022/06/12 19:47:47;;;;;;;15.43;5.33;;;;;;;22.58;69.17;100804.11;5239968;55;1138925;-76
2022/06/12 19:53:13;;;;;;;15.98;5.80;;;;;;;22.60;69.42;100806.62;5231180;55;1140988;-76
2022/06/12 19:58:25;;;;;;;15.85;7.40;;;;;;;22.65;69.70;100805.52;5237137;55;1141294;-76
2022/06/12 20:03:32;;;;;;;8.48;4.83;;;;;;;22.65;69.77;100799.61;5236719;55;1141025;-74
2022/06/12 20:08:38;;;;;;;18.45;6.17;;;;;;;22.65;69.94;100794.73;5175327;56;1139205;-75
2022/06/12 20:13:49;;;;;;;14.93;5.30;;;;;;;22.60;69.72;100787.23;5177929;56;1141034;-75
2022/06/12 20:18:58;;;;;;;15.60;5.55;;;;;;;22.57;69.79;100793.00;5172370;56;1141239;-75
2022/06/12 20:24:07;;;;;;;11.10;5.17;;;;;;;22.48;69.57;100784.69;5168559;56;1141011;-75
2022/06/12 20:29:20;;;;;;;8.40;5.42;;;;;;;22.38;69.64;100776.08;5174265;56;1141072;-76
2022/06/12 20:34:30;;;;;;;15.03;5.00;;;;;;;22.28;70.12;100773.70;5164341;56;1139203;-74
2022/06/12 20:39:37;;;;;;;11.35;5.33;;;;;;;22.16;70.43;100769.79;5168066;56;1141451;-74
2022/06/12 20:44:42;;;;;;;11.50;4.53;;;;;;;22.05;70.43;100767.08;5190551;56;1141063;-75
2022/06/12 20:49:47;;;;;;;7.62;5.40;;;;;;;;;;5145289;56;1140973;-76
2022/06/12 20:54:52;;;;;;;14.83;5.65;;;;;;;21.96;70.81;100768.17;5190596;56;818160;-76
2022/06/12 20:59:58;;;;;;;11.10;6.78;;;;;;;21.94;71.14;100766.17;5183133;56;1139302;-74
2022/06/12 21:05:06;;;;;;;6.30;4.30;;;;;;;21.86;71.17;100758.69;5186858;56;1141169;-73
2022/06/12 21:10:12;;;;;;;8.88;4.50;;;;;;;21.63;71.40;100755.59;5179034;56;1139665;-75
2022/06/12 21:15:17;;;;;;;6.92;4.33;;;;;;;21.37;72.03;100756.05;5184018;56;1139000;-75
2022/06/12 21:20:24;;;;;;;5.47;4.05;;;;;;;21.27;72.06;100760.83;5194200;56;1138945;-76
2022/06/12 21:25:31;;;;;;;13.05;4.60;;;;;;;21.17;72.45;100758.05;5205473;56;1139056;-76
2022/06/12 21:30:39;;;;;;;8.98;5.58;;;;;;;21.15;73.62;100752.84;5193516;56;1141056;-73
2022/06/12 21:35:44;;;;;;;8.63;5.85;;;;;;;21.04;73.57;100743.88;5182685;56;1139582;-72
2022/06/12 21:40:50;;;;;;;18.25;5.65;;;;;;;20.97;73.66;100746.95;5158181;56;1138956;-75
2022/06/12 21:45:56;;;;;;;11.53;4.45;;;;;;;20.93;73.51;100740.28;5187694;56;1141700;-73
2022/06/12 21:51:02;;;;;;;8.70;3.98;;;;;;;20.65;72.77;100729.22;5128603;57;1141077;-76
2022/06/12 21:56:08;;;;;;;9.08;4.22;;;;;;;20.41;73.25;100734.26;5130533;57;1138929;-73
2022/06/12 22:01:14;;;;;;;6.35;4.03;;;;;;;20.20;73.87;100736.69;5103387;57;1139201;-76
2022/06/12 22:06:19;;;;;;;4.67;4.20;;;;;;;20.07;74.39;100743.14;5167210;56;1137128;-73
2022/06/12 22:11:25;;;;;;;9.55;5.55;;;;;;;20.01;74.81;100737.45;5229067;56;1136973;-73
2022/06/12 22:16:33;;;;;;;8.98;4.55;;;;;;;20.07;75.61;100732.40;5211899;56;1137275;-74
2022/06/12 22:21:39;;;;;;;12.70;6.22;;;;;;;20.02;75.39;100731.06;5293865;55;1137124;-73
2022/06/12 22:26:45;;;;;;;13.98;5.58;;;;;;;19.72;75.27;100737.23;5251680;55;1139172;-73
2022/06/12 22:31:51;;;;;;;13.62;6.42;;;;;;;19.32;76.23;100731.44;5229162;55;1138916;-75
2022/06/12 22:36:57;;;;;;;10.15;5.75;;;;;;;19.11;77.02;100725.26;5228999;56;1139233;-75
2022/06/12 22:42:03;;;;;;;9.38;5.72;;;;;;;19.12;77.79;100727.44;5228943;56;1139195;-76
2022/06/12 22:47:09;;;;;;;11.73;7.28;;;;;;;18.98;77.59;100728.45;5182183;56;1136900;-75
2022/06/12 22:52:15;;;;;;;17.50;6.47;;;;;;;18.98;78.72;100716.39;5146283;56;1139293;-73
2022/06/12 22:57:21;;;;;;;11.73;6.30;;;;;;;19.19;79.01;100717.22;5131693;57;1139218;-73
2022/06/12 23:02:27;;;;;;;9.08;4.97;;;;;;;19.08;77.98;100709.53;5147660;56;1138990;-76
2022/06/12 23:07:33;;;;;;;14.63;6.20;;;;;;;19.09;78.17;100713.89;5177112;56;1136946;-73
2022/06/12 23:12:39;;;;;;;8.03;5.22;;;;;;;19.24;79.19;100701.47;5203630;56;1139254;-74
2022/06/12 23:17:44;;;;;;;14.40;5.70;;;;;;;19.37;79.10;100698.25;5253024;55;1137181;-76
2022/06/12 23:28:16;;;;;;;10.16;6.44;;;;;;;19.42;77.34;100692.34;5274448;55;1138968;-75
2022/06/12 23:33:24;;;;;;;9.70;6.50;;;;;;;18.98;76.63;100683.39;5165777;56;1141070;-74
2022/06/12 23:38:29;;;;;;;8.38;5.10;;;;;;;18.96;78.18;100671.49;5247510;55;1139068;-76
2022/06/12 23:43:35;;;;;;;9.10;5.37;;;;;;;18.92;78.21;100654.09;5269060;55;1138987;-75
2022/06/12 23:48:41;;;;;;;7.42;6.30;;;;;;;18.92;78.27;100645.22;5272335;55;1138930;-75
2022/06/12 23:53:47;;;;;;;8.80;5.12;;;;;;;18.90;77.57;100648.57;5242538;56;1139239;-74
2022/06/12 23:58:53;;;;;;;7.42;5.50;;;;;;;18.73;77.42;100646.91;5242226;56;1138970;-76
